createdAt,value
2019-06-07T00:00:45.819Z,10.30
2019-06-07T00:03:26.638Z,9.93
2019-06-07T00:05:46.597Z,9.83
2019-06-07T00:08:24.846Z,9.85
2019-06-07T00:10:47.562Z,9.78
2019-06-07T00:13:19.946Z,9.10
2019-06-07T00:15:48.083Z,8.50
2019-06-07T00:18:25.209Z,8.23
2019-06-07T00:20:48.724Z,8.48
2019-06-07T00:23:22.103Z,9.70
2019-06-07T00:25:49.224Z,9.10
2019-06-07T00:28:20.030Z,9.30
2019-06-07T00:30:51.917Z,9.13
2019-06-07T00:33:24.069Z,9.50
2019-06-07T00:35:51.729Z,9.38
2019-06-07T00:38:21.978Z,10.40
2019-06-07T00:40:51.543Z,9.73
2019-06-07T00:43:28.027Z,10.00
2019-06-07T00:45:52.001Z,9.38
2019-06-07T00:48:31.345Z,10.05
2019-06-07T00:50:52.653Z,9.58
2019-06-07T00:53:31.508Z,9.80
2019-06-07T00:55:53.768Z,9.13
2019-06-07T00:58:27.700Z,9.70
2019-06-07T01:00:55.150Z,9.78
2019-06-07T01:03:25.986Z,9.55
2019-06-07T01:06:01.891Z,9.58
2019-06-07T01:08:31.553Z,9.33
2019-06-07T01:11:00.921Z,9.13
2019-06-07T01:13:30.531Z,10.05
2019-06-07T01:16:03.122Z,10.68
2019-06-07T01:18:40.448Z,9.73
2019-06-07T01:21:04.115Z,9.98
2019-06-07T01:24:04.959Z,9.20
2019-06-07T01:26:04.943Z,9.23
2019-06-07T01:28:34.481Z,10.05
2019-06-07T01:31:04.086Z,10.15
2019-06-07T01:33:50.666Z,10.63
2019-06-07T01:36:17.920Z,10.70
2019-06-07T01:38:47.689Z,9.55
2019-06-07T01:41:19.962Z,9.90
2019-06-07T01:43:52.361Z,10.70
2019-06-07T01:46:25.346Z,10.35
2019-06-07T01:48:56.825Z,9.68
2019-06-07T01:51:27.887Z,10.20
2019-06-07T01:54:41.399Z,10.45
2019-06-07T01:56:29.861Z,9.63
2019-06-07T01:58:59.467Z,9.38
2019-06-07T02:01:34.614Z,9.45
2019-06-07T02:04:00.090Z,9.88
2019-06-07T02:06:32.049Z,10.50
2019-06-07T02:09:01.052Z,8.58
2019-06-07T02:11:32.117Z,10.10
2019-06-07T02:14:06.907Z,9.43
2019-06-07T02:16:36.391Z,10.57
2019-06-07T02:19:05.910Z,9.90
2019-06-07T02:21:35.467Z,10.98
2019-06-07T02:24:05.059Z,11.00
2019-06-07T02:26:34.563Z,10.38
2019-06-07T02:29:05.808Z,10.28
2019-06-07T02:31:39.057Z,10.38
2019-06-07T02:34:06.560Z,10.03
2019-06-07T02:36:41.207Z,9.40
2019-06-07T02:39:07.927Z,9.60
2019-06-07T02:41:39.871Z,9.68
2019-06-07T02:44:08.462Z,10.82
2019-06-07T02:46:46.787Z,10.65
2019-06-07T02:49:09.052Z,10.35
2019-06-07T02:51:41.395Z,10.55
2019-06-07T02:54:09.644Z,10.50
2019-06-07T02:56:55.657Z,11.75
2019-06-07T02:59:10.113Z,11.33
2019-06-07T03:01:42.594Z,11.30
2019-06-07T03:04:11.383Z,11.20
2019-06-07T03:06:44.458Z,10.95
2019-06-07T03:09:13.894Z,11.25
2019-06-07T03:11:45.759Z,11.28
2019-06-07T03:14:18.245Z,12.23
2019-06-07T03:17:07.420Z,11.12
2019-06-07T03:19:39.558Z,11.43
2019-06-07T03:22:09.026Z,11.83
2019-06-07T03:24:42.025Z,11.48
2019-06-07T03:27:33.998Z,11.40
2019-06-07T03:29:41.329Z,11.65
2019-06-07T03:32:10.849Z,11.38
2019-06-07T03:34:43.507Z,11.68
2019-06-07T03:37:11.660Z,12.10
2019-06-07T03:39:41.270Z,11.93
2019-06-07T03:42:11.577Z,11.95
2019-06-07T03:44:41.741Z,11.78
2019-06-07T03:47:11.228Z,12.00
2019-06-07T03:49:42.509Z,12.07
2019-06-07T03:52:12.404Z,12.68
2019-06-07T03:54:41.899Z,12.70
2019-06-07T03:57:11.344Z,12.07
2019-06-07T03:59:41.558Z,13.05
2019-06-07T04:02:11.108Z,12.53
2019-06-07T04:04:40.675Z,12.78
2019-06-07T04:07:10.046Z,12.33
2019-06-07T04:09:42.863Z,12.13
2019-06-07T04:12:11.087Z,11.85
2019-06-07T04:14:42.700Z,12.37
2019-06-07T04:17:11.624Z,11.83
2019-06-07T04:19:43.333Z,11.63
2019-06-07T04:22:12.232Z,11.40
2019-06-07T04:24:42.127Z,12.45
2019-06-07T04:27:11.694Z,11.63
2019-06-07T04:30:05.814Z,12.18
2019-06-07T04:32:17.978Z,11.85
2019-06-07T04:34:53.239Z,12.10
2019-06-07T04:37:25.464Z,11.93
2019-06-07T04:39:56.400Z,11.18
2019-06-07T04:42:25.928Z,12.00
2019-06-07T04:44:55.664Z,11.60
2019-06-07T04:47:26.757Z,11.85
2019-06-07T04:49:57.677Z,11.12
2019-06-07T04:52:27.119Z,10.85
2019-06-07T04:54:56.527Z,11.12
2019-06-07T04:57:26.007Z,10.20
2019-06-07T05:00:34.215Z,10.60
2019-06-07T05:02:26.492Z,10.30
2019-06-07T05:04:55.929Z,10.65
2019-06-07T05:07:26.747Z,10.78
2019-06-07T05:09:56.167Z,11.03
2019-06-07T05:12:25.671Z,10.10
2019-06-07T05:14:55.115Z,10.03
2019-06-07T05:17:26.066Z,10.10
2019-06-07T05:19:55.469Z,9.93
2019-06-07T05:22:25.086Z,9.75
2019-06-07T05:24:54.484Z,9.85
2019-06-07T05:27:23.952Z,9.78
2019-06-07T05:30:24.234Z,9.73
2019-06-07T05:32:24.491Z,9.43
2019-06-07T05:34:54.322Z,9.63
2019-06-07T05:37:24.130Z,8.78
2019-06-07T05:39:53.601Z,8.35
2019-06-07T05:42:23.105Z,8.55
2019-06-07T05:44:52.524Z,9.20
2019-06-07T05:47:21.969Z,9.70
2019-06-07T05:49:51.621Z,9.90
2019-06-07T05:52:21.622Z,9.65
2019-06-07T05:54:58.639Z,10.08
2019-06-07T05:57:28.204Z,9.40
2019-06-07T05:59:57.731Z,10.20
2019-06-07T06:02:27.121Z,9.53
2019-06-07T06:04:56.526Z,9.23
2019-06-07T06:07:25.898Z,8.55
2019-06-07T06:09:55.485Z,9.10
2019-06-07T06:12:35.218Z,9.18
2019-06-07T06:14:56.102Z,9.50
2019-06-07T06:17:25.585Z,8.45
2019-06-07T06:19:55.003Z,8.98
2019-06-07T06:22:24.839Z,8.73
2019-06-07T06:25:29.865Z,8.58
2019-06-07T06:28:03.204Z,8.80
2019-06-07T06:29:56.700Z,8.88
2019-06-07T06:32:53.847Z,8.13
2019-06-07T06:35:00.382Z,8.33
2019-06-07T06:37:29.887Z,8.23
2019-06-07T06:39:59.378Z,8.83
2019-06-07T06:42:28.983Z,9.28
2019-06-07T06:44:58.399Z,8.58
2019-06-07T06:47:27.899Z,8.95
2019-06-07T06:49:57.361Z,8.50
2019-06-07T06:52:27.170Z,8.35
2019-06-07T06:55:00.860Z,7.50
2019-06-07T06:57:27.961Z,7.47
2019-06-07T06:59:57.457Z,8.08
2019-06-07T07:02:26.868Z,7.87
2019-06-07T07:04:56.260Z,7.50
2019-06-07T07:07:27.433Z,8.33
2019-06-07T07:09:59.545Z,7.50
2019-06-07T07:12:31.755Z,6.95
2019-06-07T07:15:01.305Z,7.58
2019-06-07T07:17:47.500Z,6.62
2019-06-07T07:20:02.000Z,7.08
2019-06-07T07:22:31.542Z,7.33
2019-06-07T07:25:01.032Z,6.87
2019-06-07T07:27:30.585Z,6.10
2019-06-07T07:30:34.991Z,6.75
2019-06-07T07:32:32.512Z,6.85
2019-06-07T07:35:02.018Z,6.72
2019-06-07T07:37:31.568Z,6.33
2019-06-07T07:40:21.487Z,6.53
2019-06-07T07:42:33.439Z,7.08
2019-06-07T07:45:03.301Z,7.42
2019-06-07T07:47:32.651Z,6.97
2019-06-07T07:50:02.060Z,6.72
2019-06-07T07:52:31.959Z,7.00
2019-06-07T07:55:01.346Z,7.05
2019-06-07T07:57:30.755Z,7.03
2019-06-07T08:00:36.018Z,6.35
2019-06-07T08:02:32.999Z,7.05
2019-06-07T08:05:25.685Z,7.50
2019-06-07T08:07:33.471Z,6.90
2019-06-07T08:10:04.532Z,5.95
2019-06-07T08:12:55.724Z,6.12
2019-06-07T08:15:06.553Z,6.08
2019-06-07T08:17:36.405Z,5.40
2019-06-07T08:20:07.601Z,5.70
2019-06-07T08:22:37.089Z,5.42
2019-06-07T08:25:08.354Z,5.97
2019-06-07T08:27:37.788Z,5.37
2019-06-07T08:30:46.541Z,5.00
2019-06-07T08:32:42.477Z,4.95
2019-06-07T08:36:01.036Z,5.08
2019-06-07T08:38:15.210Z,4.78
2019-06-07T08:40:17.783Z,4.45
2019-06-07T08:43:04.557Z,3.75
2019-06-07T08:45:19.086Z,4.30
2019-06-07T08:47:56.512Z,3.90
2019-06-07T08:50:20.886Z,3.90
2019-06-07T08:52:56.038Z,4.12
2019-06-07T08:55:22.964Z,3.85
2019-06-07T08:58:01.211Z,3.98
2019-06-07T09:02:58.029Z,4.80
2019-06-07T09:05:26.464Z,4.05
2019-06-07T09:08:21.702Z,4.15
2019-06-07T09:10:27.069Z,4.00
2019-06-07T09:13:00.391Z,3.37
2019-06-07T09:15:27.591Z,4.83
2019-06-07T09:18:35.468Z,4.10
2019-06-07T09:20:43.412Z,4.20
2019-06-07T09:23:17.286Z,4.95
2019-06-07T09:25:56.628Z,4.75
2019-06-07T09:28:20.293Z,5.35
2019-06-07T09:30:47.594Z,4.85
2019-06-07T09:33:17.146Z,4.45
2019-06-07T09:35:46.549Z,4.90
2019-06-07T09:38:25.453Z,4.78
2019-06-07T09:40:47.029Z,4.62
2019-06-07T09:43:59.764Z,5.03
2019-06-07T09:45:47.548Z,4.75
2019-06-07T09:49:01.380Z,5.12
2019-06-07T09:50:48.534Z,4.70
2019-06-07T09:53:22.732Z,5.70
2019-06-07T09:55:49.421Z,5.50
2019-06-07T09:58:50.172Z,5.30
2019-06-07T10:00:50.162Z,5.65
2019-06-07T10:03:22.347Z,5.58
2019-06-07T10:05:50.815Z,5.00
2019-06-07T10:09:26.131Z,4.80
2019-06-07T10:10:51.412Z,4.87
2019-06-07T10:13:21.942Z,5.50
2019-06-07T10:15:53.648Z,4.90
2019-06-07T10:18:23.203Z,4.12
2019-06-07T10:20:52.756Z,4.72
2019-06-07T10:23:22.130Z,5.80
2019-06-07T10:25:51.949Z,4.65
2019-06-07T10:28:24.567Z,4.58
2019-06-07T10:30:54.219Z,4.80
2019-06-07T10:33:23.627Z,4.47
2019-06-07T10:35:53.022Z,3.98
2019-06-07T10:38:22.512Z,4.55
2019-06-07T10:40:52.143Z,4.10
2019-06-07T10:43:21.579Z,4.75
2019-06-07T10:45:51.103Z,4.53
2019-06-07T10:48:20.500Z,3.92
2019-06-07T10:50:50.010Z,5.17
2019-06-07T10:53:19.404Z,4.05
2019-06-07T10:55:49.335Z,3.55
2019-06-07T10:58:18.722Z,3.77
2019-06-07T11:00:48.275Z,3.50
2019-06-07T11:03:17.659Z,4.08
2019-06-07T11:05:47.062Z,3.80
2019-06-07T11:08:16.474Z,3.00
2019-06-07T11:10:45.853Z,2.87
2019-06-07T11:13:15.245Z,3.20
2019-06-07T11:15:44.700Z,3.75
2019-06-07T11:18:14.516Z,3.72
2019-06-07T11:20:44.149Z,3.62
2019-06-07T11:23:14.330Z,3.80
2019-06-07T11:25:43.769Z,3.05
2019-06-07T11:28:14.484Z,2.25
2019-06-07T11:30:44.222Z,2.85
2019-06-07T11:33:16.211Z,2.65
2019-06-07T11:35:44.764Z,2.47
2019-06-07T11:38:14.659Z,2.40
2019-06-07T11:40:44.181Z,2.72
2019-06-07T11:43:14.844Z,3.12
2019-06-07T11:45:44.391Z,2.60
2019-06-07T11:48:13.849Z,2.30
2019-06-07T11:50:43.334Z,2.47
2019-06-07T11:53:12.771Z,2.62
2019-06-07T11:55:42.189Z,2.40
2019-06-07T11:58:15.126Z,2.17
2019-06-07T12:00:42.686Z,2.30
2019-06-07T12:03:13.901Z,2.45
2019-06-07T12:05:43.435Z,2.50
2019-06-07T12:08:14.031Z,2.95
2019-06-07T12:10:43.502Z,2.60
2019-06-07T12:13:12.901Z,2.37
2019-06-07T12:15:42.316Z,1.60
2019-06-07T12:18:13.044Z,1.60
2019-06-07T12:20:42.486Z,1.70
2019-06-07T12:23:12.050Z,1.60
2019-06-07T12:25:41.562Z,1.60
2019-06-07T12:28:11.004Z,1.57
2019-06-07T12:30:40.369Z,1.77
2019-06-07T12:33:11.202Z,1.42
2019-06-07T12:35:40.743Z,1.60
2019-06-07T12:38:10.257Z,1.62
2019-06-07T12:40:39.655Z,2.10
2019-06-07T12:43:09.069Z,1.40
2019-06-07T12:45:44.876Z,1.80
2019-06-07T12:48:12.545Z,1.67
2019-06-07T12:50:42.997Z,1.60
2019-06-07T12:53:13.602Z,1.47
2019-06-07T12:55:43.232Z,1.65
2019-06-07T12:58:13.815Z,1.65
2019-06-07T13:00:43.315Z,2.15
2019-06-07T13:03:14.151Z,1.72
2019-06-07T13:05:43.683Z,1.67
2019-06-07T13:08:13.118Z,1.50
2019-06-07T13:10:42.515Z,1.52
2019-06-07T13:13:11.911Z,1.87
2019-06-07T13:15:41.305Z,1.60
2019-06-07T13:18:14.833Z,1.85
2019-06-07T13:20:42.749Z,1.57
2019-06-07T13:23:12.187Z,1.82
2019-06-07T13:25:46.501Z,1.60
2019-06-07T13:28:12.750Z,1.87
2019-06-07T13:30:42.173Z,1.62
2019-06-07T13:33:11.549Z,1.70
2019-06-07T13:35:41.010Z,1.65
2019-06-07T13:38:13.123Z,1.60
2019-06-07T13:40:42.488Z,1.90
2019-06-07T13:43:11.882Z,1.72
2019-06-07T13:45:41.301Z,1.95
2019-06-07T13:48:12.223Z,1.62
2019-06-07T13:50:41.567Z,1.95
2019-06-07T13:53:10.960Z,1.82
2019-06-07T13:55:40.341Z,1.60
2019-06-07T13:58:09.747Z,2.02
2019-06-07T14:00:39.208Z,1.77
2019-06-07T14:03:11.376Z,1.85
2019-06-07T14:05:40.819Z,1.50
2019-06-07T14:08:10.209Z,1.98
2019-06-07T14:10:39.615Z,1.60
2019-06-07T14:13:09.131Z,1.70
2019-06-07T14:15:38.732Z,1.90
2019-06-07T14:18:08.107Z,2.22
2019-06-07T14:20:38.687Z,1.67
2019-06-07T14:23:09.197Z,2.02
2019-06-07T14:25:38.630Z,2.00
2019-06-07T14:28:11.549Z,2.05
2019-06-07T14:30:39.176Z,2.08
2019-06-07T14:33:09.531Z,1.92
2019-06-07T14:35:38.999Z,2.00
2019-06-07T14:38:08.722Z,1.77
2019-06-07T14:40:38.106Z,1.75
2019-06-07T14:43:07.477Z,1.80
2019-06-07T14:45:36.850Z,1.70
2019-06-07T14:48:06.414Z,1.95
2019-06-07T14:50:35.817Z,1.98
2019-06-07T14:53:05.417Z,1.90
2019-06-07T14:55:35.159Z,2.22
2019-06-07T14:58:04.836Z,2.17
2019-06-07T15:00:44.702Z,2.50
2019-06-07T15:03:14.098Z,2.25
2019-06-07T15:05:44.033Z,2.15
2019-06-07T15:08:13.482Z,1.10
2019-06-07T15:10:42.858Z,0.82
2019-06-07T15:13:12.221Z,1.20
2019-06-07T15:15:41.619Z,1.15
2019-06-07T15:18:10.977Z,0.70
2019-06-07T15:20:40.530Z,0.82
2019-06-07T15:23:09.896Z,0.60
2019-06-07T15:25:39.718Z,0.72
2019-06-07T15:28:09.067Z,0.78
2019-06-07T15:30:38.444Z,0.60
2019-06-07T15:33:07.842Z,0.55
2019-06-07T15:35:38.913Z,0.85
2019-06-07T15:38:08.408Z,0.70
2019-06-07T15:40:39.572Z,0.60
2019-06-07T15:43:09.234Z,0.70
2019-06-07T15:45:39.744Z,0.85
2019-06-07T15:48:09.282Z,0.90
2019-06-07T15:50:38.716Z,0.80
2019-06-07T15:53:08.074Z,0.90
2019-06-07T15:55:43.046Z,1.30
2019-06-07T15:58:09.196Z,0.75
2019-06-07T16:00:40.594Z,0.65
2019-06-07T16:03:09.773Z,0.55
2019-06-07T16:05:40.504Z,0.68
2019-06-07T16:08:10.384Z,0.60
2019-06-07T16:10:40.982Z,0.80
2019-06-07T16:13:10.772Z,0.70
2019-06-07T16:15:41.387Z,0.70
2019-06-07T16:18:11.132Z,0.78
2019-06-07T16:20:41.513Z,0.82
2019-06-07T16:23:11.177Z,0.82
2019-06-07T16:25:40.612Z,0.70
2019-06-07T16:28:10.021Z,0.50
2019-06-07T16:30:40.514Z,0.60
2019-06-07T16:33:10.049Z,0.70
2019-06-07T16:35:39.418Z,0.85
2019-06-07T16:38:08.812Z,0.90
2019-06-07T16:40:38.458Z,0.85
2019-06-07T16:43:16.745Z,1.95
2019-06-07T16:45:38.989Z,0.90
2019-06-07T16:48:08.371Z,0.88
2019-06-07T16:50:38.774Z,0.65
2019-06-07T16:53:08.207Z,0.90
2019-06-07T16:55:38.693Z,0.70
2019-06-07T16:58:08.133Z,0.60
2019-06-07T17:00:38.659Z,0.75
2019-06-07T17:03:08.652Z,0.70
2019-06-07T17:05:39.483Z,0.70
2019-06-07T17:08:09.253Z,0.75
2019-06-07T17:10:40.001Z,0.78
2019-06-07T17:13:09.536Z,0.90
2019-06-07T17:15:38.975Z,0.80
2019-06-07T17:18:08.421Z,0.60
2019-06-07T17:20:38.981Z,0.55
2019-06-07T17:23:08.502Z,0.70
2019-06-07T17:25:39.482Z,0.62
2019-06-07T17:28:09.065Z,0.95
2019-06-07T17:30:39.701Z,0.70
2019-06-07T17:33:09.266Z,0.68
2019-06-07T17:35:40.050Z,0.50
2019-06-07T17:38:09.594Z,0.80
2019-06-07T17:40:39.048Z,0.90
2019-06-07T17:43:08.470Z,0.75
2019-06-07T17:45:37.856Z,0.70
2019-06-07T17:48:07.298Z,0.65
2019-06-07T17:50:37.569Z,0.60
2019-06-07T17:53:07.045Z,0.70
2019-06-07T17:55:36.486Z,1.00
2019-06-07T17:58:06.232Z,0.78
2019-06-07T18:00:44.641Z,0.90
2019-06-07T18:03:13.951Z,0.78
2019-06-07T18:05:45.154Z,1.00
2019-06-07T18:08:15.554Z,0.70
2019-06-07T18:10:45.700Z,0.82
2019-06-07T18:13:15.152Z,0.90
2019-06-07T18:15:52.967Z,0.98
2019-06-07T18:18:19.649Z,0.80
2019-06-07T18:20:49.372Z,0.98
2019-06-07T18:23:18.718Z,0.70
2019-06-07T18:25:50.548Z,1.17
2019-06-07T18:28:19.168Z,0.95
2019-06-07T18:30:48.778Z,0.70
2019-06-07T18:33:18.280Z,0.98
2019-06-07T18:35:48.896Z,1.05
2019-06-07T18:38:18.406Z,1.35
2019-06-07T18:40:49.128Z,1.30
2019-06-07T18:43:18.628Z,0.95
2019-06-07T18:45:49.238Z,1.00
2019-06-07T18:48:18.852Z,1.00
2019-06-07T18:50:48.610Z,1.27
2019-06-07T18:53:18.097Z,1.20
2019-06-07T18:55:47.821Z,0.90
2019-06-07T18:58:17.479Z,0.70
2019-06-07T19:00:47.326Z,0.60
2019-06-07T19:03:16.963Z,1.07
2019-06-07T19:05:46.351Z,0.78
2019-06-07T19:08:15.725Z,0.70
2019-06-07T19:10:45.269Z,1.07
2019-06-07T19:13:14.688Z,0.95
2019-06-07T19:15:44.176Z,1.10
2019-06-07T19:18:13.540Z,0.85
2019-06-07T19:20:42.941Z,0.75
2019-06-07T19:23:12.316Z,0.80
2019-06-07T19:25:41.705Z,0.65
2019-06-07T19:28:11.193Z,0.80
2019-06-07T19:30:40.732Z,0.70
2019-06-07T19:33:10.129Z,0.90
2019-06-07T19:35:39.518Z,0.90
2019-06-07T19:38:09.093Z,0.72
2019-06-07T19:40:38.452Z,0.82
2019-06-07T19:43:07.828Z,1.10
2019-06-07T19:45:37.212Z,1.45
2019-06-07T19:48:06.684Z,0.70
2019-06-07T19:50:36.270Z,0.80
2019-06-07T19:53:05.817Z,0.82
2019-06-07T19:55:35.373Z,0.90
2019-06-07T19:58:04.846Z,0.80
2019-06-07T20:00:34.375Z,1.07
2019-06-07T20:03:04.562Z,0.90
2019-06-07T20:05:34.400Z,1.00
2019-06-07T20:08:04.914Z,0.80
2019-06-07T20:10:34.541Z,1.00
2019-06-07T20:13:05.143Z,0.72
2019-06-07T20:15:34.917Z,1.00
2019-06-07T20:18:05.559Z,0.88
2019-06-07T20:20:35.115Z,1.17
2019-06-07T20:23:05.241Z,1.00
2019-06-07T20:25:34.900Z,1.35
2019-06-07T20:28:05.561Z,0.95
2019-06-07T20:30:35.448Z,1.52
2019-06-07T20:33:06.147Z,1.00
2019-06-07T20:35:35.690Z,1.32
2019-06-07T20:38:05.725Z,0.95
2019-06-07T20:40:35.368Z,0.98
2019-06-07T20:43:05.763Z,0.82
2019-06-07T20:45:35.426Z,0.70
2019-06-07T20:48:06.315Z,1.00
2019-06-07T20:50:36.088Z,1.10
2019-06-07T20:53:07.076Z,0.78
2019-06-07T20:55:36.564Z,0.93
2019-06-07T20:58:07.292Z,0.62
2019-06-07T21:00:36.753Z,0.72
2019-06-07T21:03:07.401Z,1.02
2019-06-07T21:05:36.881Z,1.00
2019-06-07T21:08:10.669Z,0.85
2019-06-07T21:10:37.527Z,1.20
2019-06-07T21:13:08.129Z,0.70
2019-06-07T21:15:48.487Z,1.20
2019-06-07T21:18:16.896Z,0.98
2019-06-07T21:20:40.050Z,1.05
2019-06-07T21:23:09.424Z,0.80
2019-06-07T21:25:38.825Z,0.98
2019-06-07T21:28:09.335Z,1.05
2019-06-07T21:30:38.942Z,0.90
2019-06-07T21:33:09.606Z,0.82
2019-06-07T21:35:39.113Z,0.90
2019-06-07T21:38:09.861Z,0.95
2019-06-07T21:40:39.404Z,0.62
2019-06-07T21:43:08.829Z,1.47
2019-06-07T21:45:38.312Z,0.90
2019-06-07T21:48:08.827Z,1.22
2019-06-07T21:50:39.269Z,1.10
2019-06-07T21:53:08.704Z,0.78
2019-06-07T21:55:38.092Z,0.78
2019-06-07T21:58:09.011Z,0.53
2019-06-07T22:00:53.548Z,0.85
2019-06-07T22:03:24.200Z,0.95
2019-06-07T22:05:53.694Z,0.75
2019-06-07T22:08:23.140Z,0.88
2019-06-07T22:10:52.532Z,0.90
2019-06-07T22:13:22.170Z,1.07
2019-06-07T22:15:51.641Z,1.25
2019-06-07T22:18:21.085Z,0.70
2019-06-07T22:20:50.483Z,0.82
2019-06-07T22:23:19.959Z,0.95
2019-06-07T22:25:49.630Z,0.70
2019-06-07T22:28:18.973Z,1.05
2019-06-07T22:30:48.352Z,1.00
2019-06-07T22:33:18.988Z,1.40
2019-06-07T22:35:48.481Z,1.07
2019-06-07T22:38:18.466Z,0.95
2019-06-07T22:40:47.788Z,0.70
2019-06-07T22:43:18.812Z,1.10
2019-06-07T22:45:48.255Z,0.93
2019-06-07T22:48:17.705Z,1.17
2019-06-07T22:50:47.207Z,1.15
2019-06-07T22:53:17.618Z,1.05
2019-06-07T22:55:48.883Z,1.00
2019-06-07T22:58:18.953Z,1.25
2019-06-07T23:00:48.484Z,1.00
2019-06-07T23:03:19.127Z,1.20
2019-06-07T23:05:48.544Z,1.60
2019-06-07T23:08:19.050Z,0.70
2019-06-07T23:10:48.685Z,1.02
2019-06-07T23:13:19.564Z,0.90
2019-06-07T23:15:49.185Z,0.90
2019-06-07T23:18:19.735Z,1.37
2019-06-07T23:20:49.510Z,1.30
2019-06-07T23:23:19.997Z,1.12
2019-06-07T23:25:49.740Z,1.00
2019-06-07T23:28:20.582Z,2.20
2019-06-07T23:30:50.161Z,1.10
2019-06-07T23:33:22.828Z,1.20
2019-06-07T23:35:52.320Z,0.95
2019-06-07T23:38:21.752Z,1.50
2019-06-07T23:40:51.222Z,0.88
2019-06-07T23:43:21.588Z,0.98
2019-06-07T23:45:51.082Z,0.98
2019-06-07T23:48:21.554Z,0.93
2019-06-07T23:50:51.435Z,1.20
2019-06-07T23:53:29.866Z,1.35
2019-06-07T23:55:59.360Z,0.95
2019-06-07T23:58:31.978Z,1.70
